N8306T S50-KPLU
Flight info
| Callsign | N8306T |
|---|---|
| Flight time | N/A |
| Altitude | 2500 |
| Route | SEA |
| Aircraft | C172/L-DOV/C |
Departure
| Time | N/A |
|---|---|
| Airport | S50 |
Arrival
| Time | 2026-04-25 06:59 |
|---|---|
| Airport | Pierce County-Thun Field (KPLU) |
| Time | Latitude | Longitude | Altitude | Speed | Heading |
|---|---|---|---|---|---|
| 2026-04-25 05:58 | 47.32313 | -122.22436 | 61 ft | 0 kts | 180° |
| 2026-04-25 06:10 | 47.32307 | -122.22437 | 61 ft | 3 kts | 197° |
| 2026-04-25 06:11 | 47.32299 | -122.22460 | 62 ft | 3 kts | 272° |
| 2026-04-25 06:11 | 47.32304 | -122.22524 | 61 ft | 9 kts | 273° |
| 2026-04-25 06:11 | 47.32283 | -122.22575 | 62 ft | 3 kts | 255° |
| 2026-04-25 06:11 | 47.32254 | -122.22587 | 62 ft | 1 kts | 182° |
| 2026-04-25 06:12 | 47.32250 | -122.22588 | 63 ft | 0 kts | 193° |
| 2026-04-25 06:14 | 47.32240 | -122.22602 | 63 ft | 5 kts | 259° |
| 2026-04-25 06:14 | 47.32260 | -122.22662 | 62 ft | 11 kts | 355° |
| 2026-04-25 06:14 | 47.32526 | -122.22659 | 60 ft | 62 kts | 359° |
| 2026-04-25 06:14 | 47.32975 | -122.22663 | 231 ft | 66 kts | 359° |
| 2026-04-25 06:15 | 47.33424 | -122.22679 | 455 ft | 61 kts | 358° |
| 2026-04-25 06:15 | 47.33841 | -122.22722 | 665 ft | 58 kts | 354° |
| 2026-04-25 06:15 | 47.34235 | -122.22700 | 853 ft | 57 kts | 3° |
| 2026-04-25 06:15 | 47.34633 | -122.22667 | 1031 ft | 58 kts | 3° |
| 2026-04-25 06:16 | 47.35041 | -122.22643 | 1211 ft | 59 kts | 3° |
| 2026-04-25 06:16 | 47.35462 | -122.22623 | 1399 ft | 61 kts | 4° |
| 2026-04-25 06:16 | 47.35858 | -122.22445 | 1569 ft | 61 kts | 40° |
| 2026-04-25 06:16 | 47.36180 | -122.22039 | 1745 ft | 62 kts | 41° |
| 2026-04-25 06:17 | 47.36498 | -122.21611 | 1921 ft | 63 kts | 42° |
| 2026-04-25 06:17 | 47.36821 | -122.21159 | 2088 ft | 64 kts | 43° |
| 2026-04-25 06:17 | 47.37138 | -122.20699 | 2260 ft | 65 kts | 43° |
| 2026-04-25 06:17 | 47.37458 | -122.20224 | 2435 ft | 66 kts | 43° |
| 2026-04-25 06:18 | 47.37798 | -122.19714 | 2517 ft | 79 kts | 44° |
| 2026-04-25 06:18 | 47.38217 | -122.19070 | 2508 ft | 94 kts | 46° |
| 2026-04-25 06:18 | 47.38670 | -122.18367 | 2493 ft | 93 kts | 46° |
| 2026-04-25 06:18 | 47.39106 | -122.17686 | 2492 ft | 91 kts | 46° |
| 2026-04-25 06:19 | 47.39540 | -122.17007 | 2492 ft | 90 kts | 47° |
| 2026-04-25 06:19 | 47.39966 | -122.16338 | 2492 ft | 89 kts | 47° |
| 2026-04-25 06:19 | 47.40388 | -122.15678 | 2493 ft | 89 kts | 46° |
| 2026-04-25 06:19 | 47.40815 | -122.15007 | 2489 ft | 88 kts | 46° |
| 2026-04-25 06:20 | 47.41233 | -122.14351 | 2492 ft | 87 kts | 45° |
| 2026-04-25 06:20 | 47.41694 | -122.13778 | 2489 ft | 87 kts | 21° |
| 2026-04-25 06:20 | 47.42305 | -122.13751 | 2495 ft | 91 kts | 0° |
| 2026-04-25 06:20 | 47.42964 | -122.13824 | 2497 ft | 98 kts | 358° |
| 2026-04-25 06:21 | 47.43663 | -122.13926 | 2496 ft | 102 kts | 357° |
| 2026-04-25 06:21 | 47.44376 | -122.14039 | 2495 ft | 104 kts | 356° |
| 2026-04-25 06:21 | 47.45100 | -122.14163 | 2492 ft | 105 kts | 356° |
| 2026-04-25 06:21 | 47.45827 | -122.14290 | 2494 ft | 106 kts | 356° |
| 2026-04-25 06:22 | 47.46561 | -122.14419 | 2496 ft | 106 kts | 356° |
| 2026-04-25 06:22 | 47.47298 | -122.14555 | 2489 ft | 106 kts | 355° |
| 2026-04-25 06:22 | 47.48029 | -122.14687 | 2489 ft | 105 kts | 355° |
| 2026-04-25 06:22 | 47.48762 | -122.14820 | 2491 ft | 105 kts | 355° |
| 2026-04-25 06:23 | 47.49480 | -122.14951 | 2490 ft | 104 kts | 355° |
| 2026-04-25 06:23 | 47.50209 | -122.15083 | 2493 ft | 104 kts | 355° |
| 2026-04-25 06:23 | 47.50928 | -122.15215 | 2493 ft | 104 kts | 356° |
| 2026-04-25 06:23 | 47.51644 | -122.15346 | 2492 ft | 104 kts | 355° |
| 2026-04-25 06:24 | 47.52359 | -122.15478 | 2488 ft | 104 kts | 355° |
| 2026-04-25 06:24 | 47.53079 | -122.15612 | 2485 ft | 103 kts | 356° |
| 2026-04-25 06:24 | 47.53796 | -122.15742 | 2492 ft | 103 kts | 356° |
| 2026-04-25 06:24 | 47.54507 | -122.15869 | 2494 ft | 104 kts | 355° |
| 2026-04-25 06:25 | 47.55224 | -122.16003 | 2491 ft | 104 kts | 355° |
| 2026-04-25 06:25 | 47.55943 | -122.16135 | 2487 ft | 103 kts | 355° |
| 2026-04-25 06:25 | 47.56660 | -122.16267 | 2491 ft | 103 kts | 355° |
| 2026-04-25 06:25 | 47.57373 | -122.16396 | 2493 ft | 103 kts | 355° |
| 2026-04-25 06:26 | 47.58050 | -122.16166 | 2495 ft | 102 kts | 36° |
| 2026-04-25 06:26 | 47.58603 | -122.15514 | 2494 ft | 102 kts | 38° |
| 2026-04-25 06:26 | 47.59156 | -122.14831 | 2494 ft | 102 kts | 39° |
| 2026-04-25 06:26 | 47.59696 | -122.14146 | 2498 ft | 102 kts | 39° |
| 2026-04-25 06:27 | 47.60237 | -122.13448 | 2498 ft | 103 kts | 39° |
| 2026-04-25 06:27 | 47.60776 | -122.12750 | 2496 ft | 103 kts | 39° |
| 2026-04-25 06:27 | 47.61315 | -122.12049 | 2496 ft | 103 kts | 39° |
| 2026-04-25 06:27 | 47.61852 | -122.11347 | 2497 ft | 103 kts | 40° |
| 2026-04-25 06:28 | 47.62389 | -122.10644 | 2499 ft | 104 kts | 40° |
| 2026-04-25 06:28 | 47.62941 | -122.09949 | 2497 ft | 103 kts | 30° |
| 2026-04-25 06:28 | 47.63633 | -122.09862 | 2499 ft | 105 kts | 343° |
| 2026-04-25 06:28 | 47.64180 | -122.10596 | 2502 ft | 109 kts | 303° |
| 2026-04-25 06:29 | 47.64533 | -122.11580 | 2501 ft | 110 kts | 300° |
| 2026-04-25 06:29 | 47.64864 | -122.12611 | 2513 ft | 109 kts | 299° |
| 2026-04-25 06:29 | 47.65178 | -122.13641 | 2512 ft | 110 kts | 298° |
| 2026-04-25 06:29 | 47.65483 | -122.14683 | 2512 ft | 110 kts | 297° |
| 2026-04-25 06:30 | 47.65780 | -122.15725 | 2513 ft | 110 kts | 297° |
| 2026-04-25 06:30 | 47.66074 | -122.16766 | 2512 ft | 110 kts | 297° |
| 2026-04-25 06:30 | 47.66372 | -122.17818 | 2512 ft | 110 kts | 297° |
| 2026-04-25 06:30 | 47.66667 | -122.18868 | 2511 ft | 110 kts | 297° |
| 2026-04-25 06:31 | 47.66960 | -122.19919 | 2512 ft | 110 kts | 297° |
| 2026-04-25 06:31 | 47.67254 | -122.20967 | 2513 ft | 110 kts | 297° |
| 2026-04-25 06:31 | 47.67545 | -122.22009 | 2512 ft | 110 kts | 297° |
| 2026-04-25 06:31 | 47.67840 | -122.23072 | 2512 ft | 110 kts | 297° |
| 2026-04-25 06:32 | 47.68137 | -122.24129 | 2512 ft | 110 kts | 297° |
| 2026-04-25 06:32 | 47.68425 | -122.25169 | 2512 ft | 110 kts | 296° |
| 2026-04-25 06:32 | 47.68613 | -122.26286 | 2512 ft | 112 kts | 281° |
| 2026-04-25 06:32 | 47.68713 | -122.27420 | 2514 ft | 111 kts | 282° |
| 2026-04-25 06:33 | 47.68808 | -122.28574 | 2514 ft | 112 kts | 281° |
| 2026-04-25 06:33 | 47.68896 | -122.29712 | 2512 ft | 112 kts | 282° |
| 2026-04-25 06:33 | 47.68988 | -122.30864 | 2510 ft | 112 kts | 281° |
| 2026-04-25 06:33 | 47.69077 | -122.32006 | 2510 ft | 112 kts | 281° |
| 2026-04-25 06:34 | 47.69165 | -122.33151 | 2511 ft | 112 kts | 281° |
| 2026-04-25 06:34 | 47.69252 | -122.34292 | 2511 ft | 112 kts | 281° |
| 2026-04-25 06:34 | 47.69343 | -122.35449 | 2511 ft | 112 kts | 281° |
| 2026-04-25 06:34 | 47.69430 | -122.36595 | 2511 ft | 112 kts | 281° |
| 2026-04-25 06:35 | 47.69520 | -122.37742 | 2513 ft | 112 kts | 281° |
| 2026-04-25 06:35 | 47.69427 | -122.38881 | 2509 ft | 117 kts | 244° |
| 2026-04-25 06:35 | 47.68850 | -122.39751 | 2512 ft | 118 kts | 223° |
| 2026-04-25 06:35 | 47.68215 | -122.40510 | 2510 ft | 119 kts | 220° |
| 2026-04-25 06:36 | 47.67558 | -122.41270 | 2507 ft | 119 kts | 220° |
| 2026-04-25 06:36 | 47.66898 | -122.42024 | 2510 ft | 119 kts | 219° |
| 2026-04-25 06:36 | 47.66239 | -122.42770 | 2511 ft | 119 kts | 220° |
| 2026-04-25 06:36 | 47.65583 | -122.43516 | 2510 ft | 119 kts | 220° |
| 2026-04-25 06:37 | 47.64928 | -122.44255 | 2510 ft | 118 kts | 220° |
| 2026-04-25 06:37 | 47.64274 | -122.44998 | 2512 ft | 119 kts | 219° |
| 2026-04-25 06:37 | 47.63610 | -122.45751 | 2512 ft | 119 kts | 219° |
| 2026-04-25 06:37 | 47.62951 | -122.46495 | 2512 ft | 120 kts | 218° |
| 2026-04-25 06:38 | 47.62270 | -122.47227 | 2509 ft | 120 kts | 207° |
| 2026-04-25 06:38 | 47.61463 | -122.47413 | 2512 ft | 118 kts | 181° |
| 2026-04-25 06:38 | 47.60639 | -122.47443 | 2512 ft | 118 kts | 179° |
| 2026-04-25 06:38 | 47.59815 | -122.47456 | 2511 ft | 119 kts | 179° |
| 2026-04-25 06:39 | 47.58988 | -122.47466 | 2512 ft | 119 kts | 179° |
| 2026-04-25 06:39 | 47.58160 | -122.47477 | 2514 ft | 120 kts | 179° |
| 2026-04-25 06:39 | 47.57295 | -122.47487 | 2513 ft | 125 kts | 179° |
| 2026-04-25 06:39 | 47.56419 | -122.47496 | 2513 ft | 127 kts | 179° |
| 2026-04-25 06:40 | 47.55542 | -122.47507 | 2512 ft | 128 kts | 179° |
| 2026-04-25 06:40 | 47.54652 | -122.47517 | 2513 ft | 128 kts | 179° |
| 2026-04-25 06:40 | 47.53752 | -122.47525 | 2512 ft | 128 kts | 179° |
| 2026-04-25 06:40 | 47.52855 | -122.47533 | 2512 ft | 128 kts | 179° |
| 2026-04-25 06:41 | 47.51972 | -122.47541 | 2507 ft | 122 kts | 179° |
| 2026-04-25 06:41 | 47.51174 | -122.47550 | 2504 ft | 109 kts | 179° |
| 2026-04-25 06:41 | 47.50431 | -122.47559 | 2507 ft | 103 kts | 178° |
| 2026-04-25 06:41 | 47.49735 | -122.47567 | 2507 ft | 99 kts | 177° |
| 2026-04-25 06:42 | 47.49054 | -122.47572 | 2508 ft | 96 kts | 178° |
| 2026-04-25 06:42 | 47.48384 | -122.47578 | 2510 ft | 94 kts | 178° |
| 2026-04-25 06:42 | 47.47739 | -122.47583 | 2509 ft | 93 kts | 178° |
| 2026-04-25 06:42 | 47.47092 | -122.47591 | 2509 ft | 92 kts | 177° |
| 2026-04-25 06:43 | 47.46446 | -122.47596 | 2515 ft | 91 kts | 177° |
| 2026-04-25 06:43 | 47.45813 | -122.47601 | 2513 ft | 92 kts | 177° |
| 2026-04-25 06:43 | 47.45181 | -122.47520 | 2512 ft | 91 kts | 169° |
| 2026-04-25 06:43 | 47.44553 | -122.47398 | 2514 ft | 90 kts | 167° |
| 2026-04-25 06:44 | 47.43927 | -122.47272 | 2512 ft | 91 kts | 167° |
| 2026-04-25 06:44 | 47.43299 | -122.47141 | 2513 ft | 91 kts | 167° |
| 2026-04-25 06:44 | 47.42680 | -122.47012 | 2510 ft | 90 kts | 167° |
| 2026-04-25 06:44 | 47.42054 | -122.46881 | 2511 ft | 90 kts | 167° |
| 2026-04-25 06:45 | 47.41435 | -122.46749 | 2510 ft | 89 kts | 167° |
| 2026-04-25 06:45 | 47.40812 | -122.46618 | 2511 ft | 89 kts | 167° |
| 2026-04-25 06:45 | 47.40202 | -122.46490 | 2510 ft | 89 kts | 167° |
| 2026-04-25 06:45 | 47.39582 | -122.46357 | 2514 ft | 89 kts | 167° |
| 2026-04-25 06:46 | 47.38961 | -122.46226 | 2511 ft | 90 kts | 168° |
| 2026-04-25 06:46 | 47.38341 | -122.46094 | 2510 ft | 90 kts | 168° |
| 2026-04-25 06:46 | 47.37722 | -122.45963 | 2513 ft | 90 kts | 168° |
| 2026-04-25 06:46 | 47.37093 | -122.45830 | 2512 ft | 90 kts | 168° |
| 2026-04-25 06:47 | 47.36466 | -122.45699 | 2515 ft | 91 kts | 168° |
| 2026-04-25 06:47 | 47.35835 | -122.45566 | 2513 ft | 91 kts | 167° |
| 2026-04-25 06:47 | 47.35211 | -122.45434 | 2514 ft | 91 kts | 167° |
| 2026-04-25 06:47 | 47.34581 | -122.45300 | 2514 ft | 91 kts | 167° |
| 2026-04-25 06:48 | 47.33944 | -122.45166 | 2514 ft | 91 kts | 167° |
| 2026-04-25 06:48 | 47.33316 | -122.45033 | 2512 ft | 91 kts | 167° |
| 2026-04-25 06:48 | 47.32669 | -122.44897 | 2524 ft | 101 kts | 167° |
| 2026-04-25 06:48 | 47.31927 | -122.44736 | 2525 ft | 114 kts | 167° |
| 2026-04-25 06:49 | 47.31114 | -122.44563 | 2520 ft | 121 kts | 168° |
| 2026-04-25 06:49 | 47.30258 | -122.44560 | 2513 ft | 127 kts | 198° |
| 2026-04-25 06:49 | 47.29416 | -122.44743 | 2513 ft | 124 kts | 161° |
| 2026-04-25 06:49 | 47.28577 | -122.44443 | 2514 ft | 124 kts | 162° |
| 2026-04-25 06:50 | 47.27741 | -122.44153 | 2515 ft | 124 kts | 162° |
| 2026-04-25 06:50 | 47.26892 | -122.43858 | 2514 ft | 125 kts | 163° |
| 2026-04-25 06:50 | 47.26049 | -122.43568 | 2514 ft | 125 kts | 163° |
| 2026-04-25 06:50 | 47.25194 | -122.43272 | 2514 ft | 126 kts | 164° |
| 2026-04-25 06:51 | 47.24337 | -122.42978 | 2514 ft | 126 kts | 163° |
| 2026-04-25 06:51 | 47.23594 | -122.42386 | 2512 ft | 120 kts | 125° |
| 2026-04-25 06:51 | 47.23131 | -122.41391 | 2516 ft | 118 kts | 119° |
| 2026-04-25 06:51 | 47.22719 | -122.40434 | 2517 ft | 118 kts | 118° |
| 2026-04-25 06:52 | 47.22432 | -122.39760 | 2513 ft | 119 kts | 118° |
| 2026-04-25 06:52 | 47.21995 | -122.38719 | 2513 ft | 119 kts | 118° |
| 2026-04-25 06:52 | 47.21563 | -122.37680 | 2513 ft | 119 kts | 118° |
| 2026-04-25 06:52 | 47.21126 | -122.36633 | 2513 ft | 119 kts | 117° |
| 2026-04-25 06:53 | 47.20695 | -122.35592 | 2513 ft | 120 kts | 117° |
| 2026-04-25 06:53 | 47.20260 | -122.34547 | 2511 ft | 119 kts | 117° |
| 2026-04-25 06:53 | 47.19832 | -122.33517 | 2508 ft | 119 kts | 118° |
| 2026-04-25 06:53 | 47.19396 | -122.32466 | 2508 ft | 119 kts | 117° |
| 2026-04-25 06:54 | 47.18967 | -122.31432 | 2506 ft | 119 kts | 117° |
| 2026-04-25 06:54 | 47.18538 | -122.30401 | 2505 ft | 119 kts | 118° |
| 2026-04-25 06:54 | 47.17875 | -122.29688 | 2504 ft | 124 kts | 165° |
| 2026-04-25 06:54 | 47.17011 | -122.29535 | 2506 ft | 121 kts | 175° |
| 2026-04-25 06:55 | 47.16250 | -122.29698 | 2442 ft | 97 kts | 191° |
| 2026-04-25 06:55 | 47.15646 | -122.29864 | 2333 ft | 83 kts | 186° |
| 2026-04-25 06:55 | 47.15060 | -122.29963 | 2154 ft | 79 kts | 178° |
| 2026-04-25 06:55 | 47.14516 | -122.29969 | 2044 ft | 83 kts | 173° |
| 2026-04-25 06:56 | 47.13928 | -122.29908 | 2037 ft | 86 kts | 173° |
| 2026-04-25 06:56 | 47.13324 | -122.29839 | 1960 ft | 87 kts | 173° |
| 2026-04-25 06:56 | 47.12757 | -122.29793 | 1858 ft | 81 kts | 174° |
| 2026-04-25 06:56 | 47.12185 | -122.29767 | 1706 ft | 79 kts | 179° |
| 2026-04-25 06:57 | 47.11636 | -122.29791 | 1525 ft | 78 kts | 181° |
| 2026-04-25 06:57 | 47.11086 | -122.29836 | 1469 ft | 81 kts | 180° |
| 2026-04-25 06:57 | 47.10515 | -122.29872 | 1536 ft | 83 kts | 179° |
| 2026-04-25 06:57 | 47.09922 | -122.29915 | 1528 ft | 92 kts | 179° |
| 2026-04-25 06:58 | 47.09317 | -122.29996 | 1442 ft | 81 kts | 188° |
| 2026-04-25 06:58 | 47.08775 | -122.30068 | 1291 ft | 72 kts | 152° |
| 2026-04-25 06:58 | 47.08616 | -122.29456 | 1131 ft | 68 kts | 89° |
| 2026-04-25 06:58 | 47.08695 | -122.28828 | 1043 ft | 65 kts | 46° |
| 2026-04-25 06:59 | 47.09141 | -122.28717 | 860 ft | 69 kts | 1° |
| 2026-04-25 06:59 | 47.09621 | -122.28725 | 680 ft | 69 kts | 2° |
| 2026-04-25 06:59 | 47.10092 | -122.28722 | 544 ft | 63 kts | 2° |
| 2026-04-25 06:59 | 47.10391 | -122.28728 | 542 ft | 11 kts | 326° |
| 2026-04-25 07:00 | 47.10400 | -122.28816 | 540 ft | 7 kts | 274° |
| 2026-04-25 07:00 | 47.10408 | -122.28901 | 539 ft | 6 kts | 279° |
| 2026-04-25 07:00 | 47.10409 | -122.28903 | 539 ft | 0 kts | 279° |
| 2026-04-25 07:01 | 47.10410 | -122.28911 | 539 ft | 0 kts | 279° |
| 2026-04-25 07:01 | 47.10411 | -122.28908 | 539 ft | 0 kts | 223° |
| 2026-04-25 07:01 | 47.10416 | -122.28905 | 539 ft | 0 kts | 187° |
| 2026-04-25 07:01 | 47.10420 | -122.28904 | 539 ft | 0 kts | 186° |